Time;durP1;ratioP1;P1;durP2;ratioP2;P2;SDS_P1;SDS_P2;PMS_P1;PMS_P2;Temp;Humidity;BMP_temperature;BMP_pressure;BME280_temperature;BME280_humidity;BME280_pressure;Samples;Min_cycle;Max_cycle;Signal;HPM_P1;HPM_P2
2023/08/03 00:01:59;;;;;;;26.20;13.52;;;;;;;;;;5042006;28;20060;-72
2023/08/03 00:04:29;;;;;;;28.45;14.35;;;;;;;;;;5042203;28;20399;-74
2023/08/03 00:07:00;;;;;;;16.55;11.00;;;;;;;;;;5042115;28;20045;-74
2023/08/03 00:09:32;;;;;;;33.58;12.25;;;;;;;;;;5041547;28;20056;-74
2023/08/03 00:12:03;;;;;;;30.52;12.98;;;;;;;;;;5042243;28;20037;-75
2023/08/03 00:14:33;;;;;;;23.73;9.55;;;;;;;;;;5041907;28;20052;-73
2023/08/03 00:17:03;;;;;;;16.15;9.10;;;;;;;;;;5041835;28;20045;-73
2023/08/03 00:19:34;;;;;;;21.15;10.07;;;;;;;;;;5039964;28;20056;-74
2023/08/03 00:22:05;;;;;;;17.40;8.77;;;;;;;;;;5041251;28;20053;-73
2023/08/03 00:24:36;;;;;;;19.67;8.02;;;;;;;;;;5040382;28;20053;-74
2023/08/03 00:27:07;;;;;;;20.90;9.55;;;;;;;;;;5040094;28;20057;-73
2023/08/03 00:29:38;;;;;;;14.35;8.18;;;;;;;;;;5040305;28;20594;-74
2023/08/03 00:32:10;;;;;;;18.63;9.93;;;;;;;;;;5040009;28;20057;-74
2023/08/03 00:34:40;;;;;;;31.10;10.95;;;;;;;;;;5040722;28;20059;-73
2023/08/03 00:37:13;;;;;;;18.70;9.85;;;;;;;;;;5040675;28;20037;-73
2023/08/03 00:39:44;;;;;;;15.82;8.57;;;;;;;;;;5040065;28;20056;-74
2023/08/03 00:42:15;;;;;;;14.55;8.18;;;;;;;;;;5039242;28;20056;-74
2023/08/03 00:44:45;;;;;;;14.85;8.23;;;;;;;;;;5041349;28;20049;-73
2023/08/03 00:47:16;;;;;;;15.77;7.90;;;;;;;;;;5040465;28;20056;-74
2023/08/03 00:49:47;;;;;;;21.13;8.07;;;;;;;;;;5039121;28;20063;-74
2023/08/03 00:52:18;;;;;;;19.15;8.82;;;;;;;;;;5040742;28;20056;-74
2023/08/03 00:54:48;;;;;;;16.52;8.88;;;;;;;;;;5040258;28;20048;-75
2023/08/03 00:57:18;;;;;;;18.13;8.77;;;;;;;;;;5040779;28;20053;-75
2023/08/03 00:59:49;;;;;;;13.93;7.43;;;;;;;;;;5039320;28;20053;-75
2023/08/03 01:02:19;;;;;;;18.75;8.45;;;;;;;;;;5040191;28;20052;-75
2023/08/03 01:04:50;;;;;;;19.15;8.45;;;;;;;;;;5039256;28;20053;-74
2023/08/03 01:07:21;;;;;;;17.88;8.18;;;;;;;;;;5041916;28;20056;-75
2023/08/03 01:09:52;;;;;;;27.88;7.72;;;;;;;;;;5041122;28;20519;-73
2023/08/03 01:12:22;;;;;;;18.92;8.05;;;;;;;;;;5041008;28;20076;-74
2023/08/03 01:14:54;;;;;;;16.15;7.00;;;;;;;;;;5041811;28;20064;-77
2023/08/03 01:17:25;;;;;;;15.95;8.00;;;;;;;;;;5041482;28;20068;-75
2023/08/03 01:19:55;;;;;;;12.05;7.38;;;;;;;;;;5041525;28;20060;-73
2023/08/03 01:22:26;;;;;;;14.90;8.02;;;;;;;;;;5041201;28;20730;-74
2023/08/03 01:24:58;;;;;;;18.88;8.50;;;;;;;;;;5041626;28;20056;-74
2023/08/03 01:27:28;;;;;;;12.18;7.22;;;;;;;;;;5041302;28;20044;-75
2023/08/03 01:29:59;;;;;;;19.33;7.60;;;;;;;;;;5041793;28;20049;-75
2023/08/03 01:32:29;;;;;;;14.57;7.95;;;;;;;;;;5041061;28;20051;-75
2023/08/03 01:35:01;;;;;;;12.98;7.25;;;;;;;;;;5038233;28;20049;-74
2023/08/03 01:37:35;;;;;;;17.67;7.97;;;;;;;;;;5040737;28;20053;-73
2023/08/03 01:40:06;;;;;;;14.65;7.85;;;;;;;;;;5039261;28;20057;-74
2023/08/03 01:42:37;;;;;;;15.82;7.38;;;;;;;;;;5039569;28;20083;-74
2023/08/03 01:45:07;;;;;;;14.30;7.47;;;;;;;;;;5041030;28;20052;-74
2023/08/03 01:47:38;;;;;;;18.52;7.70;;;;;;;;;;5040956;28;20408;-73
2023/08/03 01:50:10;;;;;;;15.65;7.60;;;;;;;;;;5041124;28;20500;-72
2023/08/03 01:52:41;;;;;;;12.13;7.32;;;;;;;;;;5041487;28;20049;-76
2023/08/03 01:55:11;;;;;;;12.10;7.60;;;;;;;;;;5040996;28;20044;-72
2023/08/03 01:57:42;;;;;;;10.85;7.90;;;;;;;;;;5039311;28;20056;-73
2023/08/03 02:00:13;;;;;;;18.35;7.90;;;;;;;;;;5039553;28;20064;-73
2023/08/03 02:02:47;;;;;;;14.20;7.78;;;;;;;;;;5043281;28;20045;-74
2023/08/03 02:05:21;;;;;;;14.10;7.30;;;;;;;;;;5045128;28;20535;-76
2023/08/03 02:07:55;;;;;;;13.25;7.82;;;;;;;;;;5043063;28;20079;-73
2023/08/03 02:10:26;;;;;;;13.30;7.90;;;;;;;;;;5043699;28;20049;-73
2023/08/03 02:12:58;;;;;;;12.52;7.18;;;;;;;;;;5044454;28;20049;-73
2023/08/03 02:15:29;;;;;;;14.18;7.30;;;;;;;;;;5042047;28;20512;-72
2023/08/03 02:18:00;;;;;;;12.13;7.40;;;;;;;;;;5045191;28;20056;-72
2023/08/03 02:20:31;;;;;;;12.88;7.75;;;;;;;;;;5042458;28;20076;-73
2023/08/03 02:23:01;;;;;;;12.27;7.70;;;;;;;;;;5044543;28;20053;-74
2023/08/03 02:25:31;;;;;;;12.20;6.90;;;;;;;;;;5042794;28;20057;-74
2023/08/03 02:28:02;;;;;;;12.38;8.43;;;;;;;;;;5044440;28;20500;-74
2023/08/03 02:30:34;;;;;;;12.70;7.85;;;;;;;;;;5042832;28;20063;-74
2023/08/03 02:33:06;;;;;;;22.60;7.43;;;;;;;;;;5027169;28;20056;-74
2023/08/03 02:35:39;;;;;;;15.52;8.30;;;;;;;;;;5043846;28;20068;-74
2023/08/03 02:38:09;;;;;;;13.63;7.35;;;;;;;;;;5042758;28;20052;-75
2023/08/03 02:40:40;;;;;;;12.95;7.68;;;;;;;;;;5041827;28;20527;-73
2023/08/03 02:43:13;;;;;;;14.23;7.68;;;;;;;;;;5042214;28;20049;-74
2023/08/03 02:45:45;;;;;;;12.07;7.50;;;;;;;;;;5041338;28;20851;-74
2023/08/03 02:48:15;;;;;;;21.80;7.53;;;;;;;;;;5043886;28;20053;-74
2023/08/03 02:50:46;;;;;;;18.73;7.63;;;;;;;;;;5041547;28;20052;-74
2023/08/03 02:53:17;;;;;;;19.05;8.10;;;;;;;;;;5041376;28;20056;-74
2023/08/03 02:55:49;;;;;;;15.70;7.97;;;;;;;;;;5042379;28;20424;-75
2023/08/03 02:58:20;;;;;;;15.27;7.65;;;;;;;;;;5041278;28;20057;-74
2023/08/03 03:00:51;;;;;;;12.18;7.82;;;;;;;;;;5043738;28;20045;-74
2023/08/03 03:03:23;;;;;;;14.88;7.07;;;;;;;;;;5041836;28;20661;-74
2023/08/03 03:05:54;;;;;;;13.32;7.97;;;;;;;;;;5043430;28;20057;-74
2023/08/03 03:08:24;;;;;;;12.38;7.93;;;;;;;;;;5041760;28;20053;-74
2023/08/03 03:10:58;;;;;;;22.33;8.23;;;;;;;;;;5042007;28;20545;-74
2023/08/03 03:13:31;;;;;;;19.05;8.20;;;;;;;;;;5042730;28;20049;-74
2023/08/03 03:16:01;;;;;;;13.05;7.93;;;;;;;;;;5041885;28;21208;-75
2023/08/03 03:18:31;;;;;;;18.85;7.13;;;;;;;;;;5041310;28;20061;-73
2023/08/03 03:21:02;;;;;;;13.30;8.18;;;;;;;;;;5043179;28;20048;-73
2023/08/03 03:23:33;;;;;;;12.38;8.82;;;;;;;;;;5043758;28;20048;-74
2023/08/03 03:26:04;;;;;;;17.27;7.93;;;;;;;;;;5041712;28;20049;-74
2023/08/03 03:28:38;;;;;;;13.48;8.23;;;;;;;;;;5026452;28;20049;-74
2023/08/03 03:31:09;;;;;;;12.30;7.97;;;;;;;;;;5042719;28;20051;-73
2023/08/03 03:33:39;;;;;;;17.23;7.93;;;;;;;;;;5042557;28;20505;-74
2023/08/03 03:36:15;;;;;;;14.75;8.18;;;;;;;;;;5040749;28;20506;-74
2023/08/03 03:38:46;;;;;;;14.77;7.70;;;;;;;;;;5040963;28;20060;-75
2023/08/03 03:41:17;;;;;;;12.15;7.40;;;;;;;;;;5040960;28;20048;-74
2023/08/03 03:43:50;;;;;;;17.80;7.60;;;;;;;;;;5041059;28;20056;-74
2023/08/03 03:46:21;;;;;;;13.27;7.68;;;;;;;;;;5042602;28;20080;-74
2023/08/03 03:48:51;;;;;;;17.30;7.57;;;;;;;;;;5042531;28;20049;-74
2023/08/03 03:51:22;;;;;;;13.40;7.80;;;;;;;;;;5040420;28;20056;-74
2023/08/03 03:53:56;;;;;;;18.15;8.07;;;;;;;;;;5041070;28;20651;-74
2023/08/03 03:56:27;;;;;;;13.52;7.53;;;;;;;;;;5042707;28;20052;-73
2023/08/03 03:58:57;;;;;;;20.15;7.80;;;;;;;;;;5042464;28;20049;-75
2023/08/03 04:01:29;;;;;;;15.02;8.00;;;;;;;;;;5041332;28;20064;-75
2023/08/03 04:04:00;;;;;;;15.27;8.05;;;;;;;;;;5042450;28;20045;-74
2023/08/03 04:06:31;;;;;;;14.63;8.15;;;;;;;;;;5042261;28;20052;-74
2023/08/03 04:09:02;;;;;;;17.88;7.60;;;;;;;;;;5040340;28;20534;-74
2023/08/03 04:11:32;;;;;;;12.93;7.38;;;;;;;;;;5042366;28;20063;-74
2023/08/03 04:14:02;;;;;;;16.15;7.88;;;;;;;;;;5042460;28;20053;-73
2023/08/03 04:16:33;;;;;;;10.55;7.20;;;;;;;;;;5024837;28;20080;-74
2023/08/03 04:19:03;;;;;;;15.43;7.68;;;;;;;;;;5042693;28;20041;-75
2023/08/03 04:21:33;;;;;;;15.77;7.43;;;;;;;;;;5040409;28;20052;-74
2023/08/03 04:24:04;;;;;;;16.02;7.10;;;;;;;;;;5040750;28;20056;-75
2023/08/03 04:26:35;;;;;;;10.57;7.07;;;;;;;;;;5040086;28;20049;-75
2023/08/03 04:29:11;;;;;;;9.35;6.47;;;;;;;;;;5040339;28;20784;-74
2023/08/03 04:31:42;;;;;;;11.85;6.72;;;;;;;;;;5040434;28;20056;-74
2023/08/03 04:34:12;;;;;;;12.38;6.80;;;;;;;;;;5040276;28;20500;-74
2023/08/03 04:36:47;;;;;;;11.10;6.90;;;;;;;;;;5042087;28;20056;-74
2023/08/03 04:39:18;;;;;;;12.68;7.03;;;;;;;;;;5040117;28;20056;-75
2023/08/03 04:41:48;;;;;;;11.18;6.65;;;;;;;;;;5039937;28;21135;-75
2023/08/03 04:44:21;;;;;;;11.02;6.68;;;;;;;;;;5040684;28;20049;-75
2023/08/03 04:46:52;;;;;;;10.52;6.53;;;;;;;;;;5042256;28;20036;-75
2023/08/03 04:49:27;;;;;;;14.40;7.60;;;;;;;;;;5040015;28;20516;-73
2023/08/03 04:51:59;;;;;;;11.02;6.40;;;;;;;;;;5040440;28;20057;-74
2023/08/03 04:54:30;;;;;;;11.05;7.20;;;;;;;;;;5040019;28;20064;-74
2023/08/03 04:57:00;;;;;;;14.77;7.80;;;;;;;;;;5039622;28;20063;-74
2023/08/03 04:59:35;;;;;;;16.70;6.97;;;;;;;;;;5040365;28;20443;-74
2023/08/03 05:02:07;;;;;;;14.70;6.95;;;;;;;;;;5039701;28;20056;-74
2023/08/03 05:04:38;;;;;;;11.85;7.05;;;;;;;;;;5039978;28;20064;-73
2023/08/03 05:07:10;;;;;;;9.00;6.60;;;;;;;;;;5040932;28;20060;-73
2023/08/03 05:09:44;;;;;;;10.43;6.22;;;;;;;;;;5039777;28;20052;-74
2023/08/03 05:12:16;;;;;;;10.70;5.85;;;;;;;;;;5039229;28;20053;-75
2023/08/03 05:14:46;;;;;;;9.75;6.07;;;;;;;;;;5040024;28;20057;-74
2023/08/03 05:17:16;;;;;;;8.80;6.13;;;;;;;;;;5039638;28;20057;-73
2023/08/03 05:19:47;;;;;;;12.38;6.40;;;;;;;;;;5039461;28;20415;-74
2023/08/03 05:22:17;;;;;;;12.13;6.15;;;;;;;;;;5040521;28;20423;-75
2023/08/03 05:24:48;;;;;;;13.25;5.50;;;;;;;;;;5041919;28;20053;-75
2023/08/03 05:27:18;;;;;;;9.85;6.32;;;;;;;;;;5041213;28;20044;-75
2023/08/03 05:29:49;;;;;;;15.18;6.50;;;;;;;;;;5041041;28;20499;-75
2023/08/03 05:32:19;;;;;;;9.18;6.15;;;;;;;;;;5040513;28;20053;-75
2023/08/03 05:34:50;;;;;;;12.18;6.15;;;;;;;;;;5041442;28;20507;-75
2023/08/03 05:37:21;;;;;;;10.65;6.25;;;;;;;;;;5043347;28;20060;-75
2023/08/03 05:39:50;;;;;;;7.88;5.45;;;;;;;;;;5043776;28;20052;-75
2023/08/03 05:42:22;;;;;;;8.57;6.32;;;;;;;;;;5044826;28;20041;-73
2023/08/03 05:44:53;;;;;;;11.23;5.50;;;;;;;;;;5044797;28;20052;-75
2023/08/03 05:47:24;;;;;;;8.43;5.53;;;;;;;;;;5045306;28;20041;-75
2023/08/03 05:49:55;;;;;;;11.75;5.50;;;;;;;;;;5044597;28;20055;-73
2023/08/03 05:52:27;;;;;;;12.77;6.20;;;;;;;;;;5044725;28;20045;-75
2023/08/03 05:54:58;;;;;;;8.20;5.78;;;;;;;;;;5045382;28;20526;-74
2023/08/03 05:57:29;;;;;;;11.50;6.07;;;;;;;;;;5043939;28;20057;-75
2023/08/03 06:00:00;;;;;;;11.88;5.03;;;;;;;;;;5043475;28;20060;-74
2023/08/03 06:02:35;;;;;;;9.75;6.05;;;;;;;;;;5045129;28;20057;-74
2023/08/03 06:05:07;;;;;;;8.70;5.03;;;;;;;;;;5044325;28;20143;-74
2023/08/03 06:07:38;;;;;;;8.15;5.30;;;;;;;;;;5044245;28;20503;-75
2023/08/03 06:10:10;;;;;;;8.43;5.32;;;;;;;;;;5044647;28;20053;-75
2023/08/03 06:12:41;;;;;;;9.00;5.43;;;;;;;;;;5044450;28;20049;-74
2023/08/03 06:15:12;;;;;;;8.27;5.65;;;;;;;;;;5044535;28;20059;-75
2023/08/03 06:17:42;;;;;;;7.88;5.40;;;;;;;;;;5044179;28;20083;-75
2023/08/03 06:20:14;;;;;;;8.73;5.57;;;;;;;;;;5043727;28;20511;-75
2023/08/03 06:22:45;;;;;;;9.13;5.47;;;;;;;;;;5043696;28;20067;-74
2023/08/03 06:25:16;;;;;;;8.48;5.20;;;;;;;;;;5044377;28;20436;-73
2023/08/03 06:27:50;;;;;;;10.13;5.15;;;;;;;;;;5044363;28;20049;-74
2023/08/03 06:30:21;;;;;;;11.77;5.55;;;;;;;;;;5044513;28;20507;-74
2023/08/03 06:32:51;;;;;;;8.60;5.72;;;;;;;;;;5044255;28;20521;-75
2023/08/03 06:35:27;;;;;;;13.27;5.65;;;;;;;;;;5043756;28;20052;-74
2023/08/03 06:38:00;;;;;;;8.68;5.15;;;;;;;;;;5044005;28;20048;-75
2023/08/03 06:40:32;;;;;;;14.00;5.70;;;;;;;;;;5044546;28;20044;-74
2023/08/03 06:43:03;;;;;;;9.23;5.93;;;;;;;;;;5044667;28;20057;-74
2023/08/03 06:45:34;;;;;;;10.75;5.75;;;;;;;;;;5043058;28;20041;-74
2023/08/03 06:48:05;;;;;;;8.82;5.03;;;;;;;;;;5042965;28;20095;-75
2023/08/03 06:50:37;;;;;;;8.82;5.68;;;;;;;;;;5044492;28;20059;-74
2023/08/03 06:53:08;;;;;;;7.65;5.03;;;;;;;;;;5043411;28;20423;-73
2023/08/03 06:55:38;;;;;;;11.00;5.53;;;;;;;;;;5043589;28;20049;-75
2023/08/03 06:58:09;;;;;;;8.55;5.63;;;;;;;;;;5043255;28;20883;-74
2023/08/03 07:00:41;;;;;;;8.10;5.60;;;;;;;;;;5043402;28;20444;-73
2023/08/03 07:03:12;;;;;;;12.95;6.00;;;;;;;;;;5044022;28;20041;-75
2023/08/03 07:05:44;;;;;;;10.40;4.95;;;;;;;;;;5043378;28;20060;-75
2023/08/03 07:08:15;;;;;;;8.20;5.15;;;;;;;;;;5043663;28;20081;-73
2023/08/03 07:10:46;;;;;;;9.50;5.60;;;;;;;;;;5043310;28;20528;-75
2023/08/03 07:13:16;;;;;;;7.97;4.85;;;;;;;;;;5043322;28;20049;-74
2023/08/03 07:15:48;;;;;;;8.95;5.32;;;;;;;;;;5043014;28;20041;-73
2023/08/03 07:18:19;;;;;;;10.60;5.15;;;;;;;;;;5043324;28;20566;-75
2023/08/03 07:20:49;;;;;;;10.68;5.07;;;;;;;;;;5042984;28;20056;-75
2023/08/03 07:23:19;;;;;;;10.55;5.65;;;;;;;;;;5043634;28;20056;-74
2023/08/03 07:25:49;;;;;;;8.70;5.15;;;;;;;;;;5043639;28;20045;-74
2023/08/03 07:28:20;;;;;;;10.82;5.55;;;;;;;;;;5043253;28;20044;-74
2023/08/03 07:30:50;;;;;;;11.15;5.95;;;;;;;;;;5040821;28;20057;-75
2023/08/03 07:33:20;;;;;;;9.38;5.43;;;;;;;;;;5041829;28;20057;-74
2023/08/03 07:35:50;;;;;;;7.10;5.25;;;;;;;;;;5041774;28;20363;-75
2023/08/03 07:38:21;;;;;;;7.13;5.20;;;;;;;;;;5043086;28;20045;-75
2023/08/03 07:40:51;;;;;;;9.90;5.75;;;;;;;;;;5042530;28;20048;-74
2023/08/03 07:43:22;;;;;;;7.35;4.93;;;;;;;;;;5040786;28;20522;-74
2023/08/03 07:45:52;;;;;;;8.55;5.05;;;;;;;;;;5042229;28;20049;-74
2023/08/03 07:48:22;;;;;;;10.65;6.07;;;;;;;;;;5043226;28;20041;-74
2023/08/03 07:50:53;;;;;;;7.78;5.72;;;;;;;;;;5042906;28;20041;-74
2023/08/03 07:53:23;;;;;;;7.97;5.30;;;;;;;;;;5043089;28;20052;-75
2023/08/03 07:55:54;;;;;;;8.48;4.95;;;;;;;;;;5042700;28;20080;-75
2023/08/03 07:58:25;;;;;;;15.55;7.35;;;;;;;;;;5042067;28;20048;-75
2023/08/03 08:01:05;;;;;;;19.58;11.10;;;;;;;;;;5042909;28;20428;-74
2023/08/03 08:03:37;;;;;;;25.40;13.25;;;;;;;;;;5042585;28;20049;-74
2023/08/03 08:06:10;;;;;;;23.95;13.82;;;;;;;;;;5042851;28;20331;-74
2023/08/03 08:08:42;;;;;;;21.17;12.57;;;;;;;;;;5042102;28;20062;-73
2023/08/03 08:11:14;;;;;;;16.45;8.63;;;;;;;;;;5042922;28;20480;-75
2023/08/03 08:13:45;;;;;;;13.88;6.90;;;;;;;;;;5042151;28;20060;-74
2023/08/03 08:16:17;;;;;;;10.52;5.95;;;;;;;;;;5041965;28;20061;-75
2023/08/03 08:18:48;;;;;;;9.43;5.90;;;;;;;;;;5042241;28;20052;-75
2023/08/03 08:21:18;;;;;;;7.32;5.50;;;;;;;;;;5042124;28;20095;-74
2023/08/03 08:23:48;;;;;;;7.47;5.20;;;;;;;;;;5040879;28;20802;-75
2023/08/03 08:26:20;;;;;;;8.75;5.78;;;;;;;;;;5042385;28;20056;-74
2023/08/03 08:28:56;;;;;;;9.90;4.70;;;;;;;;;;5041719;28;20048;-75
2023/08/03 08:31:34;;;;;;;8.55;4.82;;;;;;;;;;5039699;28;20044;-73
2023/08/03 08:34:07;;;;;;;9.63;4.88;;;;;;;;;;5042199;28;20052;-73
2023/08/03 08:36:38;;;;;;;9.13;4.55;;;;;;;;;;5041917;28;20045;-75
2023/08/03 08:39:10;;;;;;;10.60;4.28;;;;;;;;;;5041566;28;20060;-75
2023/08/03 08:41:41;;;;;;;8.65;4.68;;;;;;;;;;5041811;28;20056;-76
2023/08/03 08:44:15;;;;;;;9.88;4.75;;;;;;;;;;5039876;28;20064;-73
2023/08/03 08:46:46;;;;;;;10.50;4.90;;;;;;;;;;5040186;28;20049;-74
2023/08/03 08:49:17;;;;;;;8.10;4.95;;;;;;;;;;5041395;28;20150;-73
2023/08/03 08:51:53;;;;;;;9.43;5.13;;;;;;;;;;5041463;28;20056;-76
2023/08/03 08:54:32;;;;;;;7.72;5.25;;;;;;;;;;5041558;28;20041;-74
2023/08/03 08:57:06;;;;;;;10.25;4.85;;;;;;;;;;5041802;28;20071;-74
2023/08/03 08:59:59;;;;;;;8.20;5.30;;;;;;;;;;5042075;28;20052;-75
2023/08/03 09:02:30;;;;;;;13.02;6.07;;;;;;;;;;5041528;28;20542;-76
2023/08/03 09:05:16;;;;;;;13.13;5.75;;;;;;;;;;5041152;28;20044;-73
2023/08/03 09:08:08;;;;;;;10.25;5.40;;;;;;;;;;5040845;28;20068;-73
2023/08/03 09:11:07;;;;;;;12.80;6.00;;;;;;;;;;5042057;28;20411;-74
2023/08/03 09:13:38;;;;;;;8.60;5.25;;;;;;;;;;5044536;28;20507;-75
2023/08/03 09:16:22;;;;;;;6.07;5.18;;;;;;;;;;5046109;28;20057;-73
2023/08/03 09:18:53;;;;;;;7.50;5.63;;;;;;;;;;5045702;28;20055;-73
2023/08/03 09:21:24;;;;;;;10.77;5.32;;;;;;;;;;5045662;28;20827;-74
2023/08/03 09:23:59;;;;;;;11.52;5.50;;;;;;;;;;5045486;28;20068;-75
2023/08/03 09:26:32;;;;;;;7.32;5.10;;;;;;;;;;5045439;28;20049;-75
2023/08/03 09:29:15;;;;;;;9.70;6.07;;;;;;;;;;5044079;28;20057;-78
2023/08/03 09:32:03;;;;;;;9.15;5.35;;;;;;;;;;5045564;28;20049;-75
2023/08/03 09:34:39;;;;;;;9.13;5.40;;;;;;;;;;5043780;28;20547;-73
2023/08/03 09:37:13;;;;;;;14.52;6.35;;;;;;;;;;5044795;28;20052;-75
2023/08/03 09:39:54;;;;;;;11.45;5.82;;;;;;;;;;5045147;28;20048;-78
2023/08/03 09:42:27;;;;;;;9.57;5.82;;;;;;;;;;5044824;28;20048;-75
2023/08/03 09:45:02;;;;;;;9.77;6.18;;;;;;;;;;5045567;28;20087;-74
2023/08/03 09:47:36;;;;;;;10.35;7.10;;;;;;;;;;5045631;28;20145;-75
2023/08/03 09:50:08;;;;;;;10.45;6.72;;;;;;;;;;5045035;28;20059;-72
2023/08/03 09:52:50;;;;;;;16.17;8.32;;;;;;;;;;5043145;28;20045;-76
2023/08/03 09:55:36;;;;;;;16.05;6.55;;;;;;;;;;5044115;28;20057;-76
2023/08/03 09:58:08;;;;;;;12.35;7.25;;;;;;;;;;5044945;28;20772;-76
2023/08/03 10:00:43;;;;;;;9.65;6.93;;;;;;;;;;5045589;28;20052;-75
2023/08/03 10:03:21;;;;;;;14.43;7.28;;;;;;;;;;5044780;28;20747;-75
2023/08/03 10:05:56;;;;;;;11.20;6.88;;;;;;;;;;5043446;28;20045;-75
2023/08/03 10:08:40;;;;;;;9.50;7.15;;;;;;;;;;5044796;28;20860;-75
2023/08/03 10:11:12;;;;;;;11.95;8.00;;;;;;;;;;5045006;28;20393;-78
2023/08/03 10:13:49;;;;;;;13.02;7.75;;;;;;;;;;5043864;28;20068;-75
2023/08/03 10:16:20;;;;;;;15.57;9.07;;;;;;;;;;5045093;28;20052;-79
2023/08/03 10:18:51;;;;;;;13.25;9.27;;;;;;;;;;5042862;28;20048;-76
2023/08/03 10:21:29;;;;;;;15.05;9.30;;;;;;;;;;5044062;28;20045;-80
2023/08/03 10:24:19;;;;;;;13.98;10.30;;;;;;;;;;5050659;28;20055;-75
2023/08/03 10:26:54;;;;;;;15.70;9.73;;;;;;;;;;5064086;28;20048;-79
2023/08/03 10:29:50;;;;;;;16.98;10.25;;;;;;;;;;5062733;28;20578;-75
2023/08/03 10:32:24;;;;;;;27.55;12.68;;;;;;;;;;5064100;28;20051;-76
2023/08/03 10:34:59;;;;;;;20.27;10.95;;;;;;;;;;5063508;28;20048;-75
2023/08/03 10:37:30;;;;;;;17.67;11.90;;;;;;;;;;5064301;28;20787;-77
2023/08/03 10:40:01;;;;;;;31.67;12.35;;;;;;;;;;5065222;28;20573;-77
2023/08/03 10:42:34;;;;;;;23.50;11.98;;;;;;;;;;5064013;28;20044;-73
2023/08/03 10:45:26;;;;;;;20.30;12.73;;;;;;;;;;5063061;28;20048;-75
2023/08/03 10:48:21;;;;;;;23.73;12.48;;;;;;;;;;5063661;28;20036;-76
2023/08/03 10:51:03;;;;;;;20.52;11.55;;;;;;;;;;5058197;28;20518;-75
2023/08/03 10:53:34;;;;;;;23.23;12.55;;;;;;;;;;5063584;28;20040;-75
2023/08/03 10:56:14;;;;;;;18.67;11.95;;;;;;;;;;5061847;28;20074;-77
2023/08/03 10:58:48;;;;;;;21.02;12.13;;;;;;;;;;5063742;28;20052;-76
2023/08/03 11:01:23;;;;;;;23.08;11.77;;;;;;;;;;5062680;28;20048;-75
2023/08/03 11:03:55;;;;;;;21.70;11.90;;;;;;;;;;5062156;28;20046;-75
2023/08/03 11:06:29;;;;;;;22.73;11.43;;;;;;;;;;5063797;28;20055;-73
2023/08/03 11:09:00;;;;;;;20.38;11.73;;;;;;;;;;5063811;28;20045;-76
2023/08/03 11:11:34;;;;;;;21.65;12.18;;;;;;;;;;5063480;28;20067;-79
2023/08/03 11:14:04;;;;;;;24.60;11.68;;;;;;;;;;5061979;28;20049;-74
2023/08/03 11:16:35;;;;;;;27.02;11.50;;;;;;;;;;5063533;28;20059;-74
2023/08/03 11:19:07;;;;;;;20.52;11.27;;;;;;;;;;5063282;28;20051;-73
2023/08/03 11:21:37;;;;;;;22.20;10.90;;;;;;;;;;5063074;28;20090;-75
2023/08/03 11:24:09;;;;;;;20.73;12.27;;;;;;;;;;5061531;28;20048;-73
2023/08/03 11:26:41;;;;;;;23.38;12.00;;;;;;;;;;5062984;28;20048;-74
2023/08/03 11:29:12;;;;;;;25.83;11.15;;;;;;;;;;5062219;28;20048;-76
2023/08/03 11:31:42;;;;;;;24.30;11.23;;;;;;;;;;5062443;28;20036;-74
2023/08/03 11:34:14;;;;;;;22.20;10.93;;;;;;;;;;5059374;28;20048;-74
2023/08/03 11:36:53;;;;;;;21.73;10.27;;;;;;;;;;5062016;28;20071;-75
2023/08/03 11:39:24;;;;;;;24.15;10.82;;;;;;;;;;5060238;28;20048;-78
2023/08/03 11:41:55;;;;;;;19.10;9.43;;;;;;;;;;5062369;28;20041;-76
2023/08/03 11:44:26;;;;;;;19.80;8.80;;;;;;;;;;5062998;28;20055;-80
2023/08/03 11:47:08;;;;;;;21.98;9.43;;;;;;;;;;5062473;28;20056;-76
2023/08/03 11:49:38;;;;;;;18.77;8.70;;;;;;;;;;5061045;28;20051;-76
2023/08/03 11:52:20;;;;;;;25.38;10.10;;;;;;;;;;5060666;28;20530;-76
2023/08/03 11:54:51;;;;;;;25.02;10.60;;;;;;;;;;5062515;28;20045;-74
2023/08/03 12:00:14;;;;;;;22.73;9.77;;;;;;;;;;5062619;28;20045;-75
2023/08/03 12:02:45;;;;;;;25.23;9.52;;;;;;;;;;5067090;28;20508;-76
2023/08/03 12:05:17;;;;;;;25.98;10.10;;;;;;;;;;5062230;28;20391;-75
2023/08/03 12:07:56;;;;;;;27.00;10.95;;;;;;;;;;5062340;28;20491;-75
2023/08/03 12:10:29;;;;;;;27.67;11.70;;;;;;;;;;5061788;28;20059;-75
2023/08/03 12:12:59;;;;;;;24.85;10.13;;;;;;;;;;5062094;28;20048;-75
2023/08/03 12:15:31;;;;;;;23.85;10.63;;;;;;;;;;5061994;28;20056;-78
2023/08/03 12:18:02;;;;;;;23.02;9.70;;;;;;;;;;5062251;28;20048;-75
2023/08/03 12:20:32;;;;;;;23.70;10.77;;;;;;;;;;5061874;28;20057;-74
2023/08/03 12:23:05;;;;;;;29.73;10.48;;;;;;;;;;5061367;28;20075;-75
2023/08/03 12:25:35;;;;;;;23.88;10.20;;;;;;;;;;5061966;28;20107;-75
2023/08/03 12:28:12;;;;;;;23.50;9.25;;;;;;;;;;5062170;28;20048;-74
2023/08/03 12:30:42;;;;;;;18.38;8.43;;;;;;;;;;5063664;28;20493;-73
2023/08/03 12:33:12;;;;;;;21.15;8.77;;;;;;;;;;5061500;28;20059;-74
2023/08/03 12:35:43;;;;;;;17.98;8.13;;;;;;;;;;5060571;28;20048;-74
2023/08/03 12:38:14;;;;;;;19.98;8.07;;;;;;;;;;5061758;28;20063;-74
2023/08/03 12:40:45;;;;;;;19.45;7.63;;;;;;;;;;5062111;28;20051;-78
2023/08/03 12:43:15;;;;;;;18.65;7.72;;;;;;;;;;5062246;28;20049;-74
2023/08/03 12:45:47;;;;;;;14.90;7.22;;;;;;;;;;5061555;28;20418;-77
2023/08/03 12:48:19;;;;;;;18.23;8.07;;;;;;;;;;5061353;28;20514;-75
2023/08/03 12:50:49;;;;;;;15.77;7.05;;;;;;;;;;5062309;28;20048;-75
2023/08/03 12:53:19;;;;;;;19.98;7.47;;;;;;;;;;5061613;28;20052;-74
2023/08/03 12:55:50;;;;;;;13.63;6.60;;;;;;;;;;5061364;28;20525;-73
2023/08/03 12:58:21;;;;;;;17.38;6.32;;;;;;;;;;5062194;28;20045;-75
2023/08/03 13:00:51;;;;;;;17.15;6.53;;;;;;;;;;5061381;28;20044;-75
2023/08/03 13:03:22;;;;;;;17.08;6.25;;;;;;;;;;5060208;28;20056;-74
2023/08/03 13:05:54;;;;;;;16.05;6.07;;;;;;;;;;5060188;28;20056;-74
2023/08/03 13:08:26;;;;;;;15.43;5.63;;;;;;;;;;5044521;28;20059;-75
2023/08/03 13:10:58;;;;;;;15.63;5.60;;;;;;;;;;5061201;28;20518;-74
2023/08/03 13:13:28;;;;;;;13.15;5.95;;;;;;;;;;5059817;28;20059;-75
2023/08/03 13:15:59;;;;;;;14.55;6.03;;;;;;;;;;5061009;28;20045;-75
2023/08/03 13:18:31;;;;;;;17.42;6.47;;;;;;;;;;5060517;28;20053;-74
2023/08/03 13:21:02;;;;;;;23.10;5.72;;;;;;;;;;5061384;28;20064;-74
2023/08/03 13:23:32;;;;;;;24.40;5.90;;;;;;;;;;5061454;28;20075;-73
2023/08/03 13:26:03;;;;;;;16.63;5.88;;;;;;;;;;5061792;28;20059;-74
2023/08/03 13:28:34;;;;;;;16.48;5.63;;;;;;;;;;5061654;28;20060;-75
2023/08/03 13:31:04;;;;;;;21.58;5.68;;;;;;;;;;5061304;28;20044;-74
2023/08/03 13:33:34;;;;;;;20.13;5.93;;;;;;;;;;5060861;28;20055;-74
2023/08/03 13:36:05;;;;;;;20.00;6.28;;;;;;;;;;5061668;28;20049;-75
2023/08/03 13:38:36;;;;;;;24.77;6.03;;;;;;;;;;5061228;28;20055;-75
2023/08/03 13:41:06;;;;;;;19.88;6.10;;;;;;;;;;5061036;28;20045;-75
2023/08/03 13:43:40;;;;;;;27.23;6.60;;;;;;;;;;5061549;28;20418;-75
2023/08/03 13:46:12;;;;;;;21.73;6.60;;;;;;;;;;5061873;28;20518;-73
2023/08/03 13:48:43;;;;;;;23.38;5.97;;;;;;;;;;5061063;28;20048;-75
2023/08/03 13:51:13;;;;;;;18.15;5.90;;;;;;;;;;5061093;28;20487;-75
2023/08/03 13:53:44;;;;;;;24.10;5.45;;;;;;;;;;5061272;28;20041;-76
2023/08/03 13:56:24;;;;;;;19.50;6.85;;;;;;;;;;5062564;28;20499;-74
2023/08/03 13:58:57;;;;;;;15.68;5.10;;;;;;;;;;5065546;28;20040;-75
2023/08/03 14:01:31;;;;;;;14.15;4.97;;;;;;;;;;5065091;28;20049;-74
2023/08/03 14:04:05;;;;;;;16.10;4.88;;;;;;;;;;5064448;28;20044;-74
2023/08/03 14:06:36;;;;;;;18.52;5.15;;;;;;;;;;5065099;28;20411;-75
2023/08/03 14:09:11;;;;;;;23.85;6.07;;;;;;;;;;5064208;28;20479;-74
2023/08/03 14:11:41;;;;;;;26.60;8.48;;;;;;;;;;5064415;28;20407;-76
2023/08/03 14:14:18;;;;;;;15.65;5.28;;;;;;;;;;5062960;28;20048;-76
2023/08/03 14:16:51;;;;;;;14.77;5.10;;;;;;;;;;5063924;28;20048;-77
2023/08/03 14:19:24;;;;;;;15.05;4.72;;;;;;;;;;5063909;28;20354;-75
2023/08/03 14:21:55;;;;;;;13.45;3.95;;;;;;;;;;5064864;28;20067;-76
2023/08/03 14:24:27;;;;;;;14.55;4.70;;;;;;;;;;5065366;28;20044;-74
2023/08/03 14:26:59;;;;;;;19.83;4.32;;;;;;;;;;5064852;28;20147;-75
2023/08/03 14:29:29;;;;;;;19.08;4.60;;;;;;;;;;5064774;28;20053;-74
2023/08/03 14:32:00;;;;;;;13.80;3.83;;;;;;;;;;5064193;28;20052;-74
2023/08/03 14:34:30;;;;;;;22.25;5.20;;;;;;;;;;5064148;28;20059;-74
2023/08/03 14:37:06;;;;;;;15.80;4.22;;;;;;;;;;5062131;28;20064;-74
2023/08/03 14:39:37;;;;;;;22.52;4.75;;;;;;;;;;5062890;28;20045;-75
2023/08/03 14:42:08;;;;;;;14.10;4.00;;;;;;;;;;5062673;28;20056;-75
2023/08/03 14:44:38;;;;;;;15.20;3.60;;;;;;;;;;5064587;28;20052;-73
2023/08/03 14:47:08;;;;;;;13.20;3.97;;;;;;;;;;5063896;28;20040;-74
2023/08/03 14:49:39;;;;;;;11.68;4.13;;;;;;;;;;5064162;28;20053;-77
2023/08/03 14:52:11;;;;;;;12.30;3.95;;;;;;;;;;5063591;28;20049;-75
2023/08/03 14:54:45;;;;;;;11.25;3.75;;;;;;;;;;5063609;28;20060;-75
2023/08/03 14:57:15;;;;;;;14.80;3.75;;;;;;;;;;5062512;28;20049;-75
2023/08/03 14:59:46;;;;;;;16.45;3.97;;;;;;;;;;5064425;28;20044;-78
2023/08/03 15:02:19;;;;;;;15.85;3.88;;;;;;;;;;5062080;28;20411;-75
2023/08/03 15:04:50;;;;;;;17.13;4.97;;;;;;;;;;5064115;28;20044;-75